Marshfield, Missouri
Current Conditions -  °F | °C
As of 5:52 PM on Sunday 21 Dec 2014 (Local Time) from KSGF Reporting Station
Overcast Overcast  
Wind Chill: 33°   Ceiling: 4600
Heat Index: 41°   Visibility: 10mi
Dew Point: 35°   Wind: 16mph
Humidity: 79%   Direction: 140°SE
Pressure: 29.88"   Gusts: NA
Location:  37.34°N, 92.91°W
Report Text: KSGF 212352Z 14014KT 10SM OVC046 05/02 A2988 RMK AO2 SLP122 T00500017 10056 20050 58013
Loading
Personal Weather Stations






























Interactive Weather Map New forecast layout! Learn more

10-Day Weather Forecast

Advertisements
Track Severe Weather on mobile